NSZ2090 EVRA-LYTV
Flight info
| Callsign | NSZ2090 |
|---|---|
| Flight time | N/A |
| Altitude | 35000 |
| Route | BERIL DCT BOKSU M857 OBOSO DCT LENOV DCT PARAK DCT TORTO DCT POD |
| Aircraft | B738/M-SDE2E3FGHIRWXY/LB1 |
Departure
| Time | 2026-05-01 14:46 |
|---|---|
| Airport | Riga International Airport (EVRA) |
Arrival
| Time | N/A |
|---|---|
| Airport | Tivat Airport (LYTV) |
| Time | Latitude | Longitude | Altitude | Speed | Heading |
|---|---|---|---|---|---|
| 2026-05-01 14:25 | 56.92552 | 23.97657 | 43 ft | 0 kts | 185° |
| 2026-05-01 14:38 | 56.92575 | 23.97662 | 43 ft | 4 kts | 196° |
| 2026-05-01 14:39 | 56.92597 | 23.97682 | 39 ft | 4 kts | 233° |
| 2026-05-01 14:39 | 56.92604 | 23.97711 | 42 ft | 0 kts | 275° |
| 2026-05-01 14:41 | 56.92604 | 23.97698 | 41 ft | 3 kts | 275° |
| 2026-05-01 14:41 | 56.92609 | 23.97608 | 43 ft | 10 kts | 277° |
| 2026-05-01 14:41 | 56.92663 | 23.97559 | 43 ft | 10 kts | 0° |
| 2026-05-01 14:42 | 56.92729 | 23.97569 | 43 ft | 9 kts | 5° |
| 2026-05-01 14:42 | 56.92793 | 23.97579 | 43 ft | 9 kts | 5° |
| 2026-05-01 14:42 | 56.92856 | 23.97590 | 42 ft | 9 kts | 5° |
| 2026-05-01 14:42 | 56.92919 | 23.97600 | 43 ft | 10 kts | 5° |
| 2026-05-01 14:43 | 56.92997 | 23.97613 | 43 ft | 11 kts | 5° |
| 2026-05-01 14:43 | 56.93075 | 23.97625 | 43 ft | 11 kts | 5° |
| 2026-05-01 14:43 | 56.93151 | 23.97632 | 43 ft | 11 kts | 350° |
| 2026-05-01 14:43 | 56.93219 | 23.97582 | 43 ft | 10 kts | 345° |
| 2026-05-01 14:44 | 56.93290 | 23.97568 | 43 ft | 10 kts | 5° |
| 2026-05-01 14:44 | 56.93436 | 23.97582 | 43 ft | 11 kts | 340° |
| 2026-05-01 14:44 | 56.93488 | 23.97493 | 43 ft | 10 kts | 294° |
| 2026-05-01 14:45 | 56.93493 | 23.97366 | 43 ft | 10 kts | 270° |
| 2026-05-01 14:45 | 56.93217 | 23.97253 | 42 ft | 66 kts | 185° |
| 2026-05-01 14:45 | 56.92548 | 23.97142 | 44 ft | 125 kts | 185° |
| 2026-05-01 14:46 | 56.91527 | 23.96959 | 103 ft | 164 kts | 187° |
| 2026-05-01 14:46 | 56.89200 | 23.96552 | 1288 ft | 169 kts | 188° |
| 2026-05-01 14:46 | 56.87941 | 23.96314 | 1589 ft | 195 kts | 188° |
| 2026-05-01 14:47 | 56.86521 | 23.96035 | 1939 ft | 212 kts | 189° |
| 2026-05-01 14:47 | 56.85125 | 23.95130 | 2345 ft | 217 kts | 212° |
| 2026-05-01 14:47 | 56.83818 | 23.93552 | 2504 ft | 239 kts | 228° |
| 2026-05-01 14:48 | 56.81744 | 23.88423 | 3675 ft | 256 kts | 235° |
| 2026-05-01 14:48 | 56.80660 | 23.85815 | 4409 ft | 260 kts | 234° |
| 2026-05-01 14:48 | 56.78388 | 23.80487 | 5766 ft | 271 kts | 235° |
| 2026-05-01 14:49 | 56.75911 | 23.75084 | 7093 ft | 285 kts | 230° |
| 2026-05-01 14:49 | 56.73096 | 23.69839 | 8430 ft | 295 kts | 229° |
| 2026-05-01 14:50 | 56.71156 | 23.66232 | 9422 ft | 300 kts | 229° |
| 2026-05-01 14:50 | 56.67136 | 23.58691 | 10756 ft | 335 kts | 230° |
| 2026-05-01 14:51 | 56.65506 | 23.55624 | 11259 ft | 345 kts | 230° |
| 2026-05-01 14:51 | 56.62127 | 23.49294 | 12735 ft | 352 kts | 230° |
| 2026-05-01 14:52 | 56.58856 | 23.42584 | 14204 ft | 358 kts | 236° |
| 2026-05-01 14:52 | 56.57055 | 23.39377 | 14841 ft | 373 kts | 216° |
| 2026-05-01 14:52 | 56.51931 | 23.37826 | 16234 ft | 387 kts | 170° |
| 2026-05-01 14:53 | 56.49256 | 23.38647 | 16915 ft | 393 kts | 168° |
| 2026-05-01 14:53 | 56.46546 | 23.39538 | 17566 ft | 399 kts | 168° |
| 2026-05-01 14:53 | 56.43800 | 23.40410 | 18245 ft | 403 kts | 169° |
| 2026-05-01 14:53 | 56.41014 | 23.41245 | 18875 ft | 407 kts | 169° |
| 2026-05-01 14:54 | 56.38203 | 23.42060 | 19495 ft | 411 kts | 169° |
| 2026-05-01 14:54 | 56.35348 | 23.42630 | 20097 ft | 415 kts | 181° |
| 2026-05-01 14:54 | 56.32456 | 23.42266 | 20734 ft | 417 kts | 186° |
| 2026-05-01 14:54 | 56.29596 | 23.41685 | 21333 ft | 421 kts | 188° |
| 2026-05-01 14:55 | 56.26642 | 23.41029 | 21920 ft | 425 kts | 188° |
| 2026-05-01 14:55 | 56.23732 | 23.40389 | 22489 ft | 428 kts | 187° |
| 2026-05-01 14:55 | 56.20755 | 23.39761 | 23055 ft | 432 kts | 187° |
| 2026-05-01 14:55 | 56.17754 | 23.39157 | 23630 ft | 436 kts | 187° |
| 2026-05-01 14:56 | 56.14728 | 23.38569 | 24131 ft | 439 kts | 187° |
| 2026-05-01 14:56 | 56.11676 | 23.37992 | 24628 ft | 441 kts | 186° |
| 2026-05-01 14:56 | 56.08607 | 23.37420 | 25076 ft | 445 kts | 186° |
| 2026-05-01 14:56 | 56.05509 | 23.36847 | 25479 ft | 450 kts | 186° |
| 2026-05-01 14:57 | 56.02380 | 23.36270 | 25958 ft | 452 kts | 186° |
| 2026-05-01 14:57 | 55.96095 | 23.35114 | 26885 ft | 456 kts | 186° |
| 2026-05-01 14:57 | 55.92923 | 23.34531 | 27302 ft | 460 kts | 185° |
| 2026-05-01 14:58 | 55.89734 | 23.33946 | 27718 ft | 462 kts | 185° |
| 2026-05-01 14:58 | 55.86521 | 23.33356 | 28158 ft | 465 kts | 185° |
| 2026-05-01 14:58 | 55.83333 | 23.32772 | 28579 ft | 467 kts | 185° |
| 2026-05-01 14:58 | 55.80088 | 23.32179 | 28991 ft | 469 kts | 185° |
| 2026-05-01 14:59 | 55.76818 | 23.31582 | 29387 ft | 472 kts | 185° |
| 2026-05-01 14:59 | 55.73542 | 23.30985 | 29778 ft | 474 kts | 185° |
| 2026-05-01 14:59 | 55.70252 | 23.30386 | 30156 ft | 477 kts | 185° |
| 2026-05-01 14:59 | 55.66939 | 23.29785 | 30484 ft | 479 kts | 185° |
| 2026-05-01 15:00 | 55.60261 | 23.28575 | 31133 ft | 482 kts | 185° |
| 2026-05-01 15:00 | 55.56964 | 23.27978 | 31602 ft | 480 kts | 185° |
| 2026-05-01 15:00 | 55.53650 | 23.27379 | 32068 ft | 478 kts | 185° |
| 2026-05-01 15:01 | 55.50347 | 23.26784 | 32476 ft | 477 kts | 185° |
| 2026-05-01 15:01 | 55.47045 | 23.26190 | 32859 ft | 477 kts | 185° |
| 2026-05-01 15:01 | 55.43746 | 23.25598 | 33240 ft | 476 kts | 185° |
| 2026-05-01 15:01 | 55.40461 | 23.25009 | 33638 ft | 475 kts | 185° |
| 2026-05-01 15:02 | 55.37181 | 23.24422 | 34085 ft | 473 kts | 185° |
| 2026-05-01 15:02 | 55.36074 | 23.24224 | 34233 ft | 472 kts | 185° |
| 2026-05-01 15:02 | 55.30646 | 23.23256 | 34737 ft | 472 kts | 185° |
| 2026-05-01 15:02 | 55.27380 | 23.22674 | 35056 ft | 471 kts | 185° |
| 2026-05-01 15:03 | 55.24106 | 23.22093 | 35279 ft | 473 kts | 185° |
| 2026-05-01 15:03 | 55.17498 | 23.20922 | 35263 ft | 478 kts | 185° |
| 2026-05-01 15:04 | 55.10971 | 23.19767 | 35252 ft | 470 kts | 185° |
| 2026-05-01 15:04 | 55.04458 | 23.18620 | 35272 ft | 470 kts | 185° |
| 2026-05-01 15:05 | 54.97944 | 23.17477 | 35274 ft | 471 kts | 185° |
| 2026-05-01 15:05 | 54.91420 | 23.16335 | 35270 ft | 472 kts | 185° |
| 2026-05-01 15:06 | 54.84880 | 23.15195 | 35259 ft | 473 kts | 185° |
| 2026-05-01 15:06 | 54.78318 | 23.14054 | 35273 ft | 473 kts | 185° |
| 2026-05-01 15:07 | 54.71795 | 23.12923 | 35273 ft | 474 kts | 185° |
| 2026-05-01 15:07 | 54.65234 | 23.11790 | 35265 ft | 474 kts | 185° |
| 2026-05-01 15:08 | 54.58668 | 23.10659 | 35283 ft | 474 kts | 184° |
| 2026-05-01 15:08 | 54.52113 | 23.09534 | 35276 ft | 473 kts | 184° |
| 2026-05-01 15:09 | 54.45564 | 23.08414 | 35308 ft | 473 kts | 184° |
| 2026-05-01 15:09 | 54.39010 | 23.07296 | 35282 ft | 473 kts | 184° |
| 2026-05-01 15:10 | 54.32463 | 23.06149 | 35274 ft | 473 kts | 187° |
| 2026-05-01 15:10 | 54.27175 | 23.03724 | 35282 ft | 474 kts | 202° |
| 2026-05-01 15:10 | 54.24115 | 23.01607 | 35285 ft | 474 kts | 202° |
| 2026-05-01 15:11 | 54.14945 | 22.95281 | 35279 ft | 474 kts | 201° |
| 2026-05-01 15:12 | 54.08798 | 22.91192 | 35282 ft | 474 kts | 201° |
| 2026-05-01 15:12 | 53.99313 | 22.86882 | 35279 ft | 473 kts | 190° |
| 2026-05-01 15:14 | 53.83200 | 22.80978 | 35280 ft | 474 kts | 191° |
| 2026-05-01 15:14 | 53.73585 | 22.77355 | 35281 ft | 474 kts | 191° |
| 2026-05-01 15:15 | 53.60692 | 22.72538 | 35282 ft | 475 kts | 191° |
| 2026-05-01 15:16 | 53.47781 | 22.67740 | 35283 ft | 475 kts | 191° |
| 2026-05-01 15:18 | 53.31676 | 22.61795 | 35278 ft | 475 kts | 191° |
| 2026-05-01 15:19 | 53.18751 | 22.57050 | 35289 ft | 476 kts | 190° |
| 2026-05-01 15:19 | 53.09040 | 22.53490 | 35277 ft | 477 kts | 190° |
| 2026-05-01 15:20 | 52.99321 | 22.49945 | 35282 ft | 477 kts | 190° |
| 2026-05-01 15:21 | 52.92874 | 22.47603 | 35285 ft | 477 kts | 190° |
| 2026-05-01 15:21 | 52.86382 | 22.45251 | 35282 ft | 477 kts | 190° |
| 2026-05-01 15:22 | 52.76638 | 22.41734 | 35284 ft | 477 kts | 190° |
| 2026-05-01 15:22 | 52.70146 | 22.39406 | 35276 ft | 477 kts | 190° |
| 2026-05-01 15:23 | 52.63654 | 22.37085 | 35282 ft | 477 kts | 190° |
| 2026-05-01 15:23 | 52.57168 | 22.34772 | 35284 ft | 476 kts | 189° |
| 2026-05-01 15:24 | 52.50686 | 22.32467 | 35281 ft | 476 kts | 189° |
| 2026-05-01 15:24 | 52.44242 | 22.30182 | 35285 ft | 476 kts | 189° |
| 2026-05-01 15:25 | 52.37768 | 22.27897 | 35283 ft | 476 kts | 189° |
| 2026-05-01 15:25 | 52.31297 | 22.25625 | 35282 ft | 476 kts | 189° |
| 2026-05-01 15:26 | 52.24825 | 22.23358 | 35281 ft | 476 kts | 189° |
| 2026-05-01 15:26 | 52.18356 | 22.21097 | 35307 ft | 476 kts | 189° |
| 2026-05-01 15:27 | 52.11866 | 22.18927 | 35285 ft | 476 kts | 187° |
| 2026-05-01 15:28 | 52.02082 | 22.16104 | 35283 ft | 476 kts | 187° |
| 2026-05-01 15:28 | 51.95563 | 22.14209 | 35282 ft | 476 kts | 187° |
| 2026-05-01 15:29 | 51.85819 | 22.11341 | 35287 ft | 476 kts | 187° |
| 2026-05-01 15:30 | 51.72751 | 22.07510 | 35285 ft | 477 kts | 187° |
| 2026-05-01 15:31 | 51.53161 | 22.01802 | 35283 ft | 477 kts | 187° |
| 2026-05-01 15:32 | 51.40138 | 21.98056 | 35284 ft | 476 kts | 186° |
| 2026-05-01 15:34 | 51.20534 | 21.92650 | 35300 ft | 477 kts | 186° |